createdAt,value
2023-02-19T00:01:18.913Z,100673.22
2023-02-19T00:06:23.946Z,100676.16
2023-02-19T00:11:29.142Z,100679.47
2023-02-19T00:16:37.258Z,100675.25
2023-02-19T00:21:40.714Z,100655.56
2023-02-19T00:26:45.098Z,100641.41
2023-02-19T00:31:50.063Z,100650.25
2023-02-19T00:36:53.589Z,100640.22
2023-02-19T00:41:56.988Z,100639.22
2023-02-19T00:47:01.806Z,100633.53
2023-02-19T00:52:05.517Z,100622.97
2023-02-19T00:57:08.952Z,100598.63
2023-02-19T01:02:14.645Z,100586.75
2023-02-19T01:07:19.743Z,100580.13
2023-02-19T01:12:24.256Z,100578.19
2023-02-19T01:17:29.196Z,100582.00
2023-02-19T01:22:32.621Z,100588.59
2023-02-19T01:27:36.058Z,100600.78
2023-02-19T01:32:40.989Z,100632.34
2023-02-19T01:37:44.418Z,100632.34
2023-02-19T01:42:48.112Z,100614.94
2023-02-19T01:48:04.716Z,100607.19
2023-02-19T01:53:09.432Z,100593.19
2023-02-19T01:58:13.038Z,100594.41
2023-02-19T02:03:18.005Z,100581.47
2023-02-19T02:08:39.558Z,100578.22
2023-02-19T02:13:43.313Z,100566.75
2023-02-19T02:18:57.144Z,100569.69
2023-02-19T02:24:12.800Z,100565.97
2023-02-19T02:29:26.615Z,100561.38
2023-02-19T02:34:35.981Z,100560.44
2023-02-19T02:39:40.312Z,100562.56
2023-02-19T02:45:05.458Z,100560.78
2023-02-19T02:50:13.658Z,100555.81
2023-02-19T02:55:17.541Z,100560.00
2023-02-19T03:00:21.120Z,100542.13
2023-02-19T03:05:55.915Z,100536.31
2023-02-19T03:11:23.296Z,100546.53
2023-02-19T03:16:46.473Z,100549.81
2023-02-19T03:21:58.067Z,100557.81
2023-02-19T03:27:03.488Z,100569.31
2023-02-19T03:32:16.358Z,100598.03
2023-02-19T03:37:25.185Z,100630.53
2023-02-19T03:42:38.212Z,100623.06
2023-02-19T03:47:49.808Z,100625.91
2023-02-19T03:53:01.471Z,100640.13
2023-02-19T03:58:08.685Z,100635.19
2023-02-19T04:03:17.348Z,100634.59
2023-02-19T04:08:23.768Z,100655.78
2023-02-19T04:13:36.048Z,100656.94
2023-02-19T04:18:42.274Z,100676.41
2023-02-19T04:23:47.317Z,100685.53
2023-02-19T04:28:50.855Z,100703.16
2023-02-19T04:33:54.391Z,100718.72
2023-02-19T04:38:59.416Z,100726.63
2023-02-19T04:44:02.894Z,100734.78
2023-02-19T04:49:06.504Z,100739.88
2023-02-19T04:54:11.274Z,100750.34
2023-02-19T04:59:14.812Z,100773.63
2023-02-19T05:04:18.614Z,100786.97
2023-02-19T05:09:23.554Z,100816.72
2023-02-19T05:14:26.988Z,100819.97
2023-02-19T05:19:30.590Z,100823.66
2023-02-19T05:24:35.380Z,100824.59
2023-02-19T05:29:38.799Z,100824.78
2023-02-19T05:34:42.265Z,100823.81
2023-02-19T05:39:47.182Z,100833.72
2023-02-19T05:44:50.583Z,100854.41
2023-02-19T05:49:54.153Z,100852.53
2023-02-19T05:54:59.138Z,100874.97
2023-02-19T06:00:02.554Z,100888.50
2023-02-19T06:05:15.799Z,100906.91
2023-02-19T06:10:20.800Z,100911.06
2023-02-19T06:15:24.340Z,100935.50
2023-02-19T06:20:27.840Z,100984.22
2023-02-19T06:25:32.663Z,100982.63
2023-02-19T06:30:36.139Z,100984.25
2023-02-19T06:35:39.723Z,100992.16
2023-02-19T06:40:44.568Z,100999.09
2023-02-19T06:45:47.961Z,101031.34
2023-02-19T06:50:51.368Z,101048.09
2023-02-19T06:56:00.235Z,101053.50
2023-02-19T07:01:03.782Z,101069.44
2023-02-19T07:06:07.933Z,101084.34
2023-02-19T07:11:12.957Z,101100.25
2023-02-19T07:16:17.933Z,101112.25
2023-02-19T07:21:21.427Z,101139.06
2023-02-19T07:26:26.412Z,101153.97
2023-02-19T07:31:30.089Z,101169.34
2023-02-19T07:36:33.664Z,101191.94
2023-02-19T07:41:38.803Z,101203.66
2023-02-19T07:46:43.410Z,101216.97
2023-02-19T07:51:46.996Z,101209.00
2023-02-19T07:56:51.857Z,101204.44
2023-02-19T08:02:12.996Z,101222.41
2023-02-19T08:07:16.464Z,101226.63
2023-02-19T08:12:39.952Z,101240.88
2023-02-19T08:17:43.767Z,101255.47
2023-02-19T08:22:47.888Z,101257.72
2023-02-19T08:27:52.773Z,101250.72
2023-02-19T08:33:01.859Z,101264.50
2023-02-19T08:38:06.978Z,101279.06
2023-02-19T08:43:13.418Z,101280.38
2023-02-19T08:48:16.841Z,101275.19
2023-02-19T08:53:20.313Z,101275.91
2023-02-19T08:58:26.268Z,101289.03
2023-02-19T09:03:29.775Z,101282.03
2023-02-19T09:08:33.312Z,101286.19
2023-02-19T09:13:38.195Z,101307.28
2023-02-19T09:18:41.669Z,101326.41
2023-02-19T09:23:45.178Z,101343.16
2023-02-19T09:28:50.096Z,101342.31
2023-02-19T09:33:53.559Z,101347.91
2023-02-19T09:38:57.053Z,101347.16
2023-02-19T09:44:04.044Z,101347.31
2023-02-19T09:49:12.173Z,101358.28
2023-02-19T09:54:21.873Z,101372.19
2023-02-19T09:59:30.197Z,101378.66
2023-02-19T10:04:33.693Z,101389.00
2023-02-19T10:09:37.534Z,101409.03
2023-02-19T10:14:45.543Z,101431.34
2023-02-19T10:19:49.124Z,101435.44
2023-02-19T10:24:54.796Z,101451.03
2023-02-19T10:30:01.337Z,101480.97
2023-02-19T10:35:13.018Z,101476.34
2023-02-19T10:40:18.609Z,101489.09
2023-02-19T10:45:25.744Z,101487.06
2023-02-19T10:50:32.166Z,101495.25
2023-02-19T10:55:38.176Z,101491.91
2023-02-19T11:00:43.338Z,101482.72
2023-02-19T11:06:01.184Z,101481.66
2023-02-19T11:11:04.849Z,101482.72
2023-02-19T11:16:09.885Z,101486.53
2023-02-19T11:21:28.272Z,101488.16
2023-02-19T11:26:35.114Z,101505.34
2023-02-19T11:31:40.009Z,101510.81
2023-02-19T11:36:43.815Z,101510.38
2023-02-19T11:42:07.448Z,101489.97
2023-02-19T11:47:37.660Z,101508.03
2023-02-19T11:52:44.204Z,101501.19
2023-02-19T11:57:49.235Z,101507.09
2023-02-19T12:03:05.690Z,101492.88
2023-02-19T12:08:37.638Z,101495.63
2023-02-19T12:13:57.319Z,101490.34
2023-02-19T12:19:25.693Z,101483.16
2023-02-19T12:24:41.352Z,101494.34
2023-02-19T12:29:56.563Z,101487.03
2023-02-19T12:35:38.191Z,101498.00
2023-02-19T12:40:50.641Z,101508.63
2023-02-19T12:45:56.505Z,101521.03
2023-02-19T12:51:05.584Z,101513.59
2023-02-19T12:56:14.467Z,101541.97
2023-02-19T13:01:22.231Z,101528.75
2023-02-19T13:06:36.191Z,101526.94
2023-02-19T13:11:41.340Z,101530.56
2023-02-19T13:16:49.922Z,101532.66
2023-02-19T13:22:17.648Z,101528.78
2023-02-19T13:27:36.371Z,101546.59
2023-02-19T13:32:49.742Z,101546.06
2023-02-19T13:37:56.020Z,101513.03
2023-02-19T13:43:01.216Z,101522.19
2023-02-19T13:48:16.576Z,101493.59
2023-02-19T13:53:57.497Z,101497.22
2023-02-19T13:59:19.430Z,101500.66
2023-02-19T14:04:24.854Z,101521.13
2023-02-19T14:09:47.516Z,101522.41
2023-02-19T14:14:51.627Z,101508.16
2023-02-19T14:20:00.209Z,101522.41
2023-02-19T14:25:09.050Z,101525.28
2023-02-19T14:30:13.989Z,101535.34
2023-02-19T14:35:19.668Z,101522.13
2023-02-19T14:40:28.168Z,101526.66
2023-02-19T14:45:35.263Z,101558.66
2023-02-19T14:50:38.732Z,101553.47
2023-02-19T14:55:44.263Z,101557.41
2023-02-19T15:00:47.729Z,101533.94
2023-02-19T15:05:55.741Z,101539.31
2023-02-19T15:11:02.439Z,101532.22
2023-02-19T15:16:06.898Z,101527.72
2023-02-19T15:21:22.257Z,101534.81
2023-02-19T15:26:32.995Z,101516.16
2023-02-19T15:31:36.624Z,101527.25
2023-02-19T15:36:41.885Z,101531.13
2023-02-19T15:41:52.540Z,101529.81
2023-02-19T15:46:56.645Z,101530.34
2023-02-19T15:52:02.711Z,101533.56
2023-02-19T15:57:10.460Z,101533.81
2023-02-19T16:02:14.778Z,101539.91
2023-02-19T16:07:28.424Z,101540.81
2023-02-19T16:12:33.240Z,101528.28
2023-02-19T16:17:36.843Z,101542.25
2023-02-19T16:22:42.583Z,101554.31
2023-02-19T16:27:47.419Z,101556.09
2023-02-19T16:33:37.656Z,101564.19
2023-02-19T16:38:41.088Z,101580.00
2023-02-19T16:43:45.976Z,101563.59
2023-02-19T16:48:49.836Z,101564.38
2023-02-19T16:53:53.548Z,101573.81
2023-02-19T16:58:58.614Z,101590.03
2023-02-19T17:04:06.360Z,101608.31
2023-02-19T17:09:10.266Z,101610.47
2023-02-19T17:14:15.112Z,101614.47
2023-02-19T17:19:21.119Z,101614.00
2023-02-19T17:24:24.741Z,101612.97
2023-02-19T17:29:33.707Z,101618.78
2023-02-19T17:34:37.240Z,101618.44
2023-02-19T17:39:41.209Z,101604.66
2023-02-19T17:44:47.348Z,101604.81
2023-02-19T17:49:50.786Z,101607.38
2023-02-19T17:54:54.265Z,101603.66
2023-02-19T17:59:59.237Z,101597.81
2023-02-19T18:05:02.647Z,101603.69
2023-02-19T18:10:07.601Z,101623.00
2023-02-19T18:15:17.535Z,101632.25
2023-02-19T18:20:22.883Z,101616.94
2023-02-19T18:25:26.605Z,101636.66
2023-02-19T18:30:31.601Z,101640.38
2023-02-19T18:35:35.033Z,101645.63
2023-02-19T18:40:38.476Z,101640.91
2023-02-19T18:45:45.342Z,101646.03
2023-02-19T18:50:48.919Z,101645.47
2023-02-19T18:55:52.396Z,101655.69
2023-02-19T19:00:58.760Z,101652.38
2023-02-19T19:06:02.403Z,101656.41
2023-02-19T19:11:06.236Z,101649.41
2023-02-19T19:16:11.059Z,101657.69
2023-02-19T19:21:15.795Z,101644.31
2023-02-19T19:26:19.368Z,101657.13
2023-02-19T19:31:25.507Z,101663.91
2023-02-19T19:36:29.173Z,101655.41
2023-02-19T19:41:32.982Z,101657.44
2023-02-19T19:46:43.982Z,101655.59
2023-02-19T19:51:47.927Z,101654.00
2023-02-19T19:56:51.456Z,101648.28
2023-02-19T20:01:57.821Z,101643.81
2023-02-19T20:07:01.765Z,101633.66
2023-02-19T20:12:06.496Z,101625.25
2023-02-19T20:17:11.783Z,101626.44
2023-02-19T20:22:15.242Z,101636.69
2023-02-19T20:27:19.075Z,101642.75
2023-02-19T20:32:24.092Z,101640.53
2023-02-19T20:37:27.785Z,101631.22
2023-02-19T20:42:31.474Z,101635.41
2023-02-19T20:47:37.564Z,101637.25
2023-02-19T20:52:40.962Z,101650.88
2023-02-19T20:57:44.515Z,101635.66
2023-02-19T21:02:49.471Z,101626.84
2023-02-19T21:07:52.917Z,101640.41
2023-02-19T21:12:57.241Z,101617.69
2023-02-19T21:18:03.293Z,101617.19
2023-02-19T21:23:06.775Z,101609.00
2023-02-19T21:28:10.799Z,101627.34
2023-02-19T21:33:16.563Z,101609.38
2023-02-19T21:38:20.023Z,101608.41
2023-02-19T21:43:23.461Z,101625.13
2023-02-19T21:48:28.217Z,101623.88
2023-02-19T21:53:32.104Z,101622.31
2023-02-19T21:58:35.580Z,101620.13
2023-02-19T22:03:40.416Z,101607.25
2023-02-19T22:08:44.243Z,101599.13
2023-02-19T22:13:48.023Z,101598.53
2023-02-19T22:18:54.097Z,101614.72
2023-02-19T22:23:58.277Z,101626.31
2023-02-19T22:29:05.830Z,101617.78
2023-02-19T22:34:10.857Z,101604.34
2023-02-19T22:39:18.276Z,101581.41
2023-02-19T22:44:21.726Z,101583.50
2023-02-19T22:49:26.560Z,101592.41
2023-02-19T22:54:29.992Z,101599.56
2023-02-19T22:59:33.524Z,101584.81
2023-02-19T23:04:38.398Z,101582.38
2023-02-19T23:09:41.882Z,101560.28
2023-02-19T23:14:47.158Z,101572.78
2023-02-19T23:19:52.002Z,101557.84
2023-02-19T23:24:55.726Z,101566.63
2023-02-19T23:29:59.258Z,101565.22
2023-02-19T23:35:04.127Z,101571.63
2023-02-19T23:40:08.765Z,101558.09
2023-02-19T23:45:12.423Z,101557.72
2023-02-19T23:50:17.714Z,101557.16
2023-02-19T23:55:21.149Z,101557.66
